Time;durP1;ratioP1;P1;durP2;ratioP2;P2;SDS_P1;SDS_P2;PMS_P1;PMS_P2;Temp;Humidity;BMP_temperature;BMP_pressure;BME280_temperature;BME280_humidity;BME280_pressure;Samples;Min_cycle;Max_cycle;Signal;HPM_P1;HPM_P2
2022/07/01 00:01:24;;;;;;;8.32;7.53;;;16.20;86.00;;;;;;5096180;28;20024;-38
2022/07/01 00:03:49;;;;;;;8.23;7.40;;;16.20;86.00;;;;;;5096098;28;20126;-38
2022/07/01 00:06:16;;;;;;;8.15;7.35;;;16.20;86.00;;;;;;5096243;28;20063;-38
2022/07/01 00:08:42;;;;;;;6.75;6.10;;;16.20;86.10;;;;;;5096144;28;20528;-38
2022/07/01 00:11:08;;;;;;;7.90;7.20;;;16.20;86.20;;;;;;5095887;28;20024;-38
2022/07/01 00:13:33;;;;;;;7.82;7.13;;;16.20;86.70;;;;;;5095889;28;20112;-39
2022/07/01 00:15:59;;;;;;;8.10;7.38;;;16.20;86.10;;;;;;5096108;28;20481;-38
2022/07/01 00:18:25;;;;;;;9.00;7.50;;;16.20;86.70;;;;;;5095882;28;20027;-39
2022/07/01 00:20:50;;;;;;;8.38;7.47;;;16.20;86.00;;;;;;5095912;28;20031;-38
2022/07/01 00:23:17;;;;;;;9.30;8.32;;;16.20;85.90;;;;;;5095605;28;20115;-37
2022/07/01 00:25:43;;;;;;;8.77;7.88;;;16.10;85.90;;;;;;5095897;28;20020;-37
2022/07/01 00:28:09;;;;;;;8.57;7.68;;;16.10;85.90;;;;;;5095642;28;20012;-37
2022/07/01 00:30:35;;;;;;;9.00;8.05;;;16.10;85.90;;;;;;5095123;28;20030;-39
2022/07/01 00:33:00;;;;;;;9.20;7.70;;;16.20;86.10;;;;;;5095563;28;20024;-37
2022/07/01 00:35:26;;;;;;;9.40;7.63;;;16.20;86.10;;;;;;5095562;28;20107;-39
2022/07/01 00:37:51;;;;;;;11.27;9.00;;;16.20;86.00;;;;;;5094975;28;20027;-37
2022/07/01 00:40:17;;;;;;;9.00;8.20;;;16.20;86.00;;;;;;5095908;28;20024;-38
2022/07/01 00:42:43;;;;;;;9.55;8.65;;;16.30;86.20;;;;;;5095350;28;20032;-38
2022/07/01 00:45:10;;;;;;;9.70;8.70;;;16.30;86.20;;;;;;5093993;28;20046;-38
2022/07/01 00:47:37;;;;;;;9.77;8.88;;;16.30;86.80;;;;;;5095310;28;20051;-39
2022/07/01 00:50:21;;;;;;;9.73;8.73;;;16.30;86.80;;;;;;5095484;28;20088;-37
2022/07/01 00:52:47;;;;;;;;;;;16.30;86.10;;;;;;5096136;28;20522;-38
2022/07/01 00:55:14;;;;;;;8.02;7.28;;;16.30;86.00;;;;;;5095382;28;19936;-38
2022/07/01 00:57:41;;;;;;;9.65;8.65;;;16.30;86.00;;;;;;5093785;28;20028;-38
2022/07/01 01:00:10;;;;;;;9.88;8.98;;;16.20;86.00;;;;;;5095008;28;20130;-39
2022/07/01 01:02:36;;;;;;;10.65;9.55;;;16.20;86.10;;;;;;5095185;28;20028;-37
2022/07/01 01:05:03;;;;;;;10.70;9.70;;;16.20;86.10;;;;;;5095157;28;20020;-38
2022/07/01 01:07:30;;;;;;;10.65;9.65;;;16.10;86.10;;;;;;5095020;28;20111;-38
2022/07/01 01:09:58;;;;;;;10.60;9.43;;;16.20;86.30;;;;;;5094874;28;20032;-39
2022/07/01 01:12:25;;;;;;;9.20;8.27;;;16.20;86.30;;;;;;5093479;28;20024;-39
2022/07/01 01:14:51;;;;;;;12.10;10.70;;;16.20;86.20;;;;;;5094703;28;20526;-39
2022/07/01 01:17:18;;;;;;;11.25;10.15;;;16.10;86.10;;;;;;5093355;28;20016;-39
2022/07/01 01:19:44;;;;;;;12.48;11.18;;;16.10;86.20;;;;;;5094924;28;20024;-39
2022/07/01 01:22:14;;;;;;;13.10;11.55;;;16.10;86.30;;;;;;5094492;28;20500;-39
2022/07/01 01:24:40;;;;;;;19.15;14.27;;;16.10;86.40;;;;;;5094784;28;20023;-39
2022/07/01 01:27:06;;;;;;;16.48;13.77;;;16.10;86.50;;;;;;5094713;28;20414;-39
2022/07/01 01:29:32;;;;;;;17.48;13.88;;;16.10;86.50;;;;;;5094599;28;20032;-38
2022/07/01 01:31:58;;;;;;;18.15;15.77;;;16.10;86.40;;;;;;5093000;28;20032;-38
2022/07/01 01:34:24;;;;;;;20.38;17.42;;;16.10;86.40;;;;;;5094357;28;20549;-38
2022/07/01 01:36:50;;;;;;;21.63;18.40;;;16.00;86.40;;;;;;5094240;28;20073;-38
2022/07/01 01:39:15;;;;;;;21.00;16.33;;;16.00;86.60;;;;;;5094279;28;20518;-38
2022/07/01 01:41:41;;;;;;;21.67;18.58;;;16.00;86.60;;;;;;5093591;28;20040;-39
2022/07/01 01:44:07;;;;;;;22.42;18.13;;;16.00;86.60;;;;;;5093744;28;20052;-38
2022/07/01 01:46:33;;;;;;;22.52;18.23;;;16.00;86.60;;;;;;5094139;28;20028;-39
2022/07/01 01:49:00;;;;;;;21.13;18.35;;;16.00;86.60;;;;;;5094009;28;20070;-38
2022/07/01 01:51:26;;;;;;;24.27;19.52;;;16.00;86.60;;;;;;5093965;28;20020;-39
2022/07/01 01:53:52;;;;;;;22.35;19.08;;;16.00;86.50;;;;;;5094191;28;20048;-39
2022/07/01 01:56:17;;;;;;;22.27;18.98;;;16.00;86.60;;;;;;5092680;28;20016;-38
2022/07/01 01:58:44;;;;;;;27.38;20.40;;;16.10;86.40;;;;;;5093993;28;20050;-39
2022/07/01 02:01:10;;;;;;;21.35;19.02;;;16.00;86.40;;;;;;5093053;28;20069;-39
2022/07/01 02:03:38;;;;;;;22.63;20.00;;;16.00;86.30;;;;;;5093762;28;20028;-39
2022/07/01 02:06:04;;;;;;;22.95;19.08;;;15.90;86.40;;;;;;5093687;28;20072;-37
2022/07/01 02:08:30;;;;;;;27.52;22.60;;;15.90;86.30;;;;;;5093953;28;20579;-39
2022/07/01 02:10:56;;;;;;;22.48;19.58;;;15.90;86.30;;;;;;5093631;28;20027;-39
2022/07/01 02:13:21;;;;;;;24.17;20.58;;;15.80;86.20;;;;;;5093645;28;20035;-37
2022/07/01 02:15:49;;;;;;;21.35;18.50;;;15.80;86.30;;;;;;5093678;28;20032;-39
2022/07/01 02:18:15;;;;;;;22.92;20.17;;;15.80;86.30;;;;;;5093779;28;20399;-37
2022/07/01 02:20:41;;;;;;;22.50;18.70;;;15.80;86.20;;;;;;5092300;28;20032;-37
2022/07/01 02:23:07;;;;;;;25.02;20.75;;;15.80;86.10;;;;;;5093406;28;20085;-38
2022/07/01 02:25:33;;;;;;;22.10;19.77;;;15.80;86.10;;;;;;5093484;28;20028;-39
2022/07/01 02:27:58;;;;;;;24.58;21.98;;;15.80;86.00;;;;;;5093622;28;20408;-37
2022/07/01 02:30:25;;;;;;;22.63;19.65;;;15.80;86.00;;;;;;5093630;28;20020;-38
2022/07/01 02:32:50;;;;;;;24.50;20.70;;;15.80;86.00;;;;;;5093551;28;20024;-39
2022/07/01 02:35:16;;;;;;;22.52;20.02;;;15.80;86.10;;;;;;5093468;28;20513;-39
2022/07/01 02:37:42;;;;;;;24.80;20.75;;;15.80;86.10;;;;;;5093708;28;20478;-39
2022/07/01 02:40:09;;;;;;;23.52;20.52;;;15.80;86.20;;;;;;5091724;28;20024;-38
2022/07/01 02:42:35;;;;;;;21.05;18.52;;;15.80;86.10;;;;;;5093026;28;20024;-39
2022/07/01 02:45:02;;;;;;;22.25;18.92;;;15.80;86.00;;;;;;5093967;28;20036;-38
2022/07/01 02:47:35;;;;;;;24.05;19.63;;;15.80;85.80;;;;;;5093355;28;20142;-39
2022/07/01 02:50:02;;;;;;;20.65;17.05;;;15.80;85.80;;;;;;5092994;28;20029;-38
2022/07/01 02:52:28;;;;;;;22.63;18.80;;;15.70;85.70;;;;;;5091804;28;20021;-39
2022/07/01 02:54:54;;;;;;;21.40;18.42;;;15.70;85.70;;;;;;5092840;28;20031;-40
2022/07/01 02:57:20;;;;;;;24.90;19.98;;;15.70;85.70;;;;;;5093181;28;20028;-40
2022/07/01 02:59:46;;;;;;;24.02;20.15;;;15.60;85.70;;;;;;5093224;28;20513;-39
2022/07/01 03:02:11;;;;;;;21.35;18.80;;;15.60;85.80;;;;;;5092922;28;20024;-39
2022/07/01 03:04:37;;;;;;;24.60;19.98;;;15.60;85.90;;;;;;5093316;28;20024;-40
2022/07/01 03:07:03;;;;;;;24.90;19.75;;;15.50;85.90;;;;;;5092965;28;20027;-39
2022/07/01 03:09:28;;;;;;;25.38;19.20;;;15.50;85.90;;;;;;5093242;28;20044;-40
2022/07/01 03:11:54;;;;;;;21.38;18.75;;;15.40;85.90;;;;;;5093015;28;20107;-39
2022/07/01 03:14:20;;;;;;;20.33;18.00;;;15.40;86.10;;;;;;5091682;28;20031;-39
2022/07/01 03:16:48;;;;;;;20.98;18.77;;;15.40;86.20;;;;;;5093097;28;20472;-38
2022/07/01 03:19:14;;;;;;;18.95;16.45;;;15.50;86.80;;;;;;5092841;28;20498;-38
2022/07/01 03:21:40;;;;;;;20.88;17.65;;;15.50;86.20;;;;;;5092749;28;20024;-38
2022/07/01 03:24:06;;;;;;;23.77;18.83;;;15.50;86.10;;;;;;5092754;28;20383;-39
2022/07/01 03:26:32;;;;;;;19.80;17.70;;;15.50;86.10;;;;;;5092781;28;20013;-40
2022/07/01 03:28:58;;;;;;;22.80;19.02;;;15.50;86.00;;;;;;5092629;28;20027;-38
2022/07/01 03:31:23;;;;;;;22.38;18.98;;;15.50;86.00;;;;;;5092827;28;20025;-38
2022/07/01 03:33:49;;;;;;;22.20;18.55;;;15.50;85.90;;;;;;5092673;28;20150;-39
2022/07/01 03:36:14;;;;;;;21.35;17.90;;;15.50;85.90;;;;;;5092644;28;20036;-39
2022/07/01 03:38:40;;;;;;;21.50;18.48;;;15.50;86.00;;;;;;5092589;28;20430;-39
2022/07/01 03:41:06;;;;;;;21.20;18.48;;;15.50;86.00;;;;;;5092442;28;20040;-40
2022/07/01 03:43:31;;;;;;;20.73;18.48;;;15.50;86.10;;;;;;5092375;28;20341;-39
2022/07/01 03:45:57;;;;;;;20.90;18.40;;;15.50;86.10;;;;;;5092457;28;20016;-37
2022/07/01 03:48:22;;;;;;;20.35;17.63;;;15.40;86.00;;;;;;5092765;28;20027;-39
2022/07/01 03:50:48;;;;;;;20.92;18.20;;;15.40;86.00;;;;;;5092463;28;20013;-40
2022/07/01 03:55:58;;;;;;;18.60;16.48;;;15.40;86.10;;;;;;5092426;28;20087;-37
2022/07/01 03:58:23;;;;;;;21.02;17.70;;;15.40;86.20;;;;;;5092313;28;20024;-38
2022/07/01 04:00:49;;;;;;;21.60;18.48;;;15.40;86.20;;;;;;5091439;28;20103;-39
2022/07/01 04:03:14;;;;;;;24.15;18.20;;;15.40;86.20;;;;;;5092042;28;20036;-38
2022/07/01 04:05:40;;;;;;;20.70;17.58;;;15.40;86.20;;;;;;5092373;28;20070;-39
2022/07/01 04:08:08;;;;;;;21.15;17.83;;;15.40;86.20;;;;;;5096023;28;20433;-39
2022/07/01 04:10:34;;;;;;;20.15;17.55;;;15.40;86.20;;;;;;5096274;28;20383;-38
2022/07/01 04:13:00;;;;;;;20.73;16.88;;;15.50;86.10;;;;;;5096182;28;20058;-37
2022/07/01 04:15:26;;;;;;;20.80;18.10;;;15.50;86.00;;;;;;5096380;28;20028;-38
2022/07/01 04:17:51;;;;;;;22.08;17.85;;;15.50;86.00;;;;;;5095942;28;20510;-39
2022/07/01 04:20:17;;;;;;;19.88;17.00;;;15.50;86.00;;;;;;5095971;28;20027;-39
2022/07/01 04:22:43;;;;;;;21.00;17.45;;;15.60;86.00;;;;;;5094299;28;20031;-39
2022/07/01 04:25:08;;;;;;;19.42;16.60;;;15.60;86.00;;;;;;5095821;28;20434;-39
2022/07/01 04:27:34;;;;;;;22.30;17.60;;;15.60;85.90;;;;;;5095629;28;20043;-50
2022/07/01 04:30:02;;;;;;;20.50;16.35;;;15.60;85.90;;;;;;5095539;28;20119;-38
2022/07/01 04:32:28;;;;;;;21.75;16.75;;;15.60;85.90;;;;;;5095661;28;20028;-39
2022/07/01 04:34:53;;;;;;;20.77;16.95;;;15.60;85.80;;;;;;5095614;28;20042;-39
2022/07/01 04:37:19;;;;;;;20.90;16.10;;;15.60;86.30;;;;;;5095421;28;20024;-37
2022/07/01 04:39:45;;;;;;;20.88;15.20;;;15.70;85.80;;;;;;5095859;28;20025;-39
2022/07/01 04:42:11;;;;;;;21.05;16.27;;;15.70;85.70;;;;;;5095151;28;20140;-38
2022/07/01 04:44:37;;;;;;;20.73;16.65;;;15.70;85.70;;;;;;5095562;28;20387;-39
2022/07/01 04:47:04;;;;;;;21.60;15.80;;;15.80;85.70;;;;;;5093918;28;20020;-38
2022/07/01 04:49:30;;;;;;;22.60;16.40;;;15.80;85.60;;;;;;5095287;28;20024;-39
2022/07/01 04:51:57;;;;;;;23.23;16.10;;;15.80;85.50;;;;;;5095735;28;20024;-39
2022/07/01 04:54:25;;;;;;;20.27;16.38;;;15.80;85.50;;;;;;5095510;28;20024;-39
2022/07/01 04:56:52;;;;;;;21.08;16.02;;;15.80;85.50;;;;;;5095337;28;20033;-39
2022/07/01 04:59:18;;;;;;;20.55;15.82;;;15.80;85.40;;;;;;5093918;28;20024;-39
2022/07/01 05:01:45;;;;;;;21.38;16.63;;;15.80;85.40;;;;;;5095097;28;20031;-39
2022/07/01 05:04:12;;;;;;;22.80;17.85;;;15.80;85.30;;;;;;5095583;28;20371;-38
2022/07/01 05:06:37;;;;;;;23.02;16.90;;;15.80;85.40;;;;;;5094806;28;20016;-39
2022/07/01 05:09:03;;;;;;;22.42;16.35;;;15.80;85.50;;;;;;5094702;28;20028;-37
2022/07/01 05:11:28;;;;;;;22.45;16.63;;;15.70;85.50;;;;;;5094764;28;20027;-44
2022/07/01 05:13:54;;;;;;;21.60;16.50;;;15.70;85.50;;;;;;5094727;28;20024;-38
2022/07/01 05:16:20;;;;;;;19.85;14.43;;;15.70;85.40;;;;;;5093341;28;20073;-42
2022/07/01 05:24:13;;;;;;;17.98;13.88;;;15.80;85.30;;;;;;5094674;28;20050;-39
2022/07/01 05:26:39;;;;;;;20.55;14.73;;;15.80;85.20;;;;;;5094475;28;20020;-39
2022/07/01 05:29:05;;;;;;;20.27;14.80;;;15.80;85.10;;;;;;5093021;28;20032;-39
2022/07/01 05:31:31;;;;;;;18.83;14.65;;;15.80;85.10;;;;;;5094336;28;20118;-39
2022/07/01 05:33:56;;;;;;;17.05;13.60;;;15.80;85.10;;;;;;5094198;28;20031;-39
2022/07/01 05:36:22;;;;;;;18.77;13.98;;;15.90;85.10;;;;;;5094516;28;20016;-39
2022/07/01 05:38:48;;;;;;;19.98;13.63;;;15.90;85.00;;;;;;5094236;28;20031;-39
2022/07/01 05:41:13;;;;;;;17.23;13.40;;;15.90;84.90;;;;;;5092858;28;20399;-39
2022/07/01 05:43:39;;;;;;;16.88;13.52;;;15.90;84.80;;;;;;5092801;28;20112;-38
2022/07/01 05:46:04;;;;;;;19.50;14.00;;;15.90;84.80;;;;;;5094259;28;20424;-38
2022/07/01 05:48:30;;;;;;;17.83;13.10;;;16.00;84.70;;;;;;5094071;28;20020;-37
2022/07/01 05:50:56;;;;;;;17.35;13.52;;;16.00;84.60;;;;;;5094250;28;20020;-38
2022/07/01 05:53:22;;;;;;;21.17;15.00;;;16.00;84.50;;;;;;5094235;28;20087;-37
2022/07/01 05:55:48;;;;;;;20.90;14.68;;;16.00;84.30;;;;;;5094156;28;20463;-38
2022/07/01 05:58:14;;;;;;;19.63;14.88;;;16.00;84.20;;;;;;5094647;28;20055;-37
2022/07/01 06:00:43;;;;;;;21.13;15.65;;;16.00;84.20;;;;;;5094856;28;20023;-38
2022/07/01 06:03:13;;;;;;;19.50;14.98;;;16.00;84.20;;;;;;5093925;28;20024;-38
2022/07/01 06:05:39;;;;;;;20.98;15.38;;;16.00;84.10;;;;;;5093906;28;20051;-38
2022/07/01 06:08:05;;;;;;;20.92;14.43;;;16.10;84.10;;;;;;5093617;28;20066;-36
2022/07/01 06:10:32;;;;;;;19.55;14.73;;;16.10;84.00;;;;;;5092447;28;20383;-36
2022/07/01 06:12:57;;;;;;;19.70;14.68;;;16.10;83.90;;;;;;5093285;28;20024;-35
2022/07/01 06:15:24;;;;;;;20.52;14.02;;;16.20;84.00;;;;;;5093384;28;20039;-38
2022/07/01 06:17:49;;;;;;;18.55;12.80;;;16.20;83.80;;;;;;5093311;28;20024;-37
2022/07/01 06:20:15;;;;;;;18.38;13.90;;;16.20;83.70;;;;;;5093292;28;20078;-38
2022/07/01 06:22:41;;;;;;;18.55;13.70;;;16.30;83.60;;;;;;5093310;28;20420;-38
2022/07/01 06:25:07;;;;;;;17.90;13.38;;;16.30;83.40;;;;;;5093259;28;20024;-36
2022/07/01 06:27:38;;;;;;;19.67;13.38;;;16.30;83.40;;;;;;5093394;28;20375;-39
2022/07/01 06:30:04;;;;;;;19.80;14.15;;;16.30;83.30;;;;;;5092878;28;20016;-39
2022/07/01 06:32:30;;;;;;;17.83;13.50;;;16.30;83.30;;;;;;5093484;28;20031;-38
2022/07/01 06:34:55;;;;;;;18.00;12.50;;;16.30;83.30;;;;;;5094209;28;20363;-39
2022/07/01 06:37:21;;;;;;;19.60;13.73;;;16.40;83.30;;;;;;5093114;28;20035;-39
2022/07/01 06:39:47;;;;;;;20.17;14.32;;;16.40;83.10;;;;;;5093279;28;20099;-39
2022/07/01 06:42:13;;;;;;;20.15;14.45;;;16.40;82.80;;;;;;5093008;28;20068;-38
2022/07/01 06:44:38;;;;;;;16.58;13.15;;;16.40;82.70;;;;;;5092414;28;20032;-37
2022/07/01 06:47:04;;;;;;;20.13;14.07;;;16.40;82.80;;;;;;5093292;28;20028;-38
2022/07/01 06:49:29;;;;;;;19.95;13.07;;;16.30;82.80;;;;;;5093256;28;20023;-39
2022/07/01 06:51:55;;;;;;;18.83;12.98;;;16.40;82.80;;;;;;5093096;28;20050;-39
2022/07/01 06:54:21;;;;;;;18.45;12.38;;;16.40;82.70;;;;;;5092918;28;20067;-39
2022/07/01 06:56:46;;;;;;;18.02;13.32;;;16.40;82.50;;;;;;5092997;28;20020;-39
2022/07/01 06:59:12;;;;;;;18.23;13.23;;;16.40;82.50;;;;;;5093008;28;20024;-43
2022/07/01 07:01:38;;;;;;;18.95;12.93;;;16.50;82.50;;;;;;5093014;28;20084;-39
2022/07/01 07:04:03;;;;;;;18.50;12.70;;;16.50;82.30;;;;;;5093211;28;20432;-39
2022/07/01 07:06:29;;;;;;;16.67;12.60;;;16.50;82.10;;;;;;5093055;28;20035;-38
2022/07/01 07:08:55;;;;;;;17.63;12.55;;;16.50;82.10;;;;;;5092867;28;20028;-38
2022/07/01 07:11:20;;;;;;;16.33;12.60;;;16.50;82.10;;;;;;5092983;28;20169;-39
2022/07/01 07:13:46;;;;;;;18.50;13.52;;;16.50;82.10;;;;;;5093035;28;20029;-40
2022/07/01 07:16:12;;;;;;;19.70;13.38;;;16.50;82.00;;;;;;5092771;28;20039;-39
2022/07/01 07:18:38;;;;;;;19.90;13.10;;;16.50;81.90;;;;;;5093042;28;20111;-39
2022/07/01 07:21:04;;;;;;;18.98;12.40;;;16.60;81.80;;;;;;5092673;28;20027;-37
2022/07/01 07:23:30;;;;;;;19.23;13.60;;;16.60;81.60;;;;;;5092632;28;20111;-42
2022/07/01 07:25:56;;;;;;;16.63;12.38;;;16.70;81.60;;;;;;5092987;28;20020;-39
2022/07/01 07:28:22;;;;;;;17.35;12.40;;;16.70;82.10;;;;;;5092890;28;20074;-40
2022/07/01 07:30:47;;;;;;;16.30;12.25;;;16.90;81.40;;;;;;5092825;28;20415;-39
2022/07/01 07:33:13;;;;;;;15.15;12.05;;;16.90;81.00;;;;;;5092600;28;20031;-39
2022/07/01 07:35:39;;;;;;;16.25;11.73;;;17.00;80.80;;;;;;5093067;28;20024;-40
2022/07/01 07:38:04;;;;;;;16.45;11.50;;;17.10;80.60;;;;;;5092868;28;20028;-38
2022/07/01 07:40:30;;;;;;;18.05;11.80;;;17.00;80.20;;;;;;5093466;28;20035;-42
2022/07/01 07:42:55;;;;;;;14.30;10.65;;;17.00;80.10;;;;;;5096412;28;20032;-40
2022/07/01 07:45:21;;;;;;;16.58;11.40;;;17.00;80.10;;;;;;5095221;28;20103;-39
2022/07/01 07:47:48;;;;;;;16.05;11.55;;;17.10;80.00;;;;;;5096395;28;20051;-43
2022/07/01 07:50:14;;;;;;;17.20;11.82;;;17.10;79.80;;;;;;5096366;28;20496;-39
2022/07/01 07:52:41;;;;;;;16.50;11.35;;;17.20;79.50;;;;;;5096289;28;20101;-39
2022/07/01 07:55:08;;;;;;;14.85;10.90;;;17.30;79.30;;;;;;5096483;28;20024;-38
2022/07/01 07:57:38;;;;;;;13.55;10.93;;;17.40;79.10;;;;;;5096387;28;20101;-39
2022/07/01 08:00:06;;;;;;;13.55;10.75;;;17.30;78.60;;;;;;5096515;28;20028;-39
2022/07/01 08:02:31;;;;;;;13.80;9.68;;;17.40;78.70;;;;;;5095949;28;20118;-38
2022/07/01 08:04:57;;;;;;;13.43;10.48;;;17.40;78.50;;;;;;5096068;28;20161;-40
2022/07/01 08:07:23;;;;;;;16.15;10.30;;;17.40;78.50;;;;;;5096032;28;20086;-39
2022/07/01 08:09:49;;;;;;;12.55;9.90;;;17.50;78.50;;;;;;5096164;28;20024;-39
2022/07/01 08:12:15;;;;;;;13.57;9.73;;;17.60;78.20;;;;;;5095837;28;20056;-40
2022/07/01 08:14:41;;;;;;;11.95;9.30;;;17.70;77.90;;;;;;5095844;28;20020;-39
2022/07/01 08:17:07;;;;;;;11.23;7.75;;;17.80;77.60;;;;;;5096050;28;20035;-39
2022/07/01 08:19:33;;;;;;;9.73;8.38;;;17.90;77.30;;;;;;5094501;28;20368;-40
2022/07/01 08:21:58;;;;;;;9.95;8.00;;;18.00;77.20;;;;;;5095678;28;20090;-37
2022/07/01 08:24:24;;;;;;;11.35;7.95;;;18.00;77.10;;;;;;5095715;28;20016;-46
2022/07/01 08:26:49;;;;;;;8.43;7.32;;;18.00;76.90;;;;;;5095640;28;20016;-39
2022/07/01 08:29:15;;;;;;;11.05;7.63;;;18.10;76.60;;;;;;5095950;28;20020;-39
2022/07/01 08:31:40;;;;;;;8.68;7.22;;;18.20;76.20;;;;;;5095539;28;20051;-39
2022/07/01 08:34:06;;;;;;;6.90;6.05;;;18.20;76.00;;;;;;5095360;28;20056;-39
2022/07/01 08:36:32;;;;;;;8.68;5.72;;;18.30;75.50;;;;;;5095574;28;20039;-38
2022/07/01 08:38:58;;;;;;;9.93;6.32;;;18.30;75.20;;;;;;5095291;28;20012;-41
2022/07/01 08:41:23;;;;;;;7.35;5.25;;;18.40;74.70;;;;;;5094301;28;20055;-39
2022/07/01 08:43:49;;;;;;;6.85;4.25;;;18.40;74.70;;;;;;5095143;28;20028;-39
2022/07/01 08:46:14;;;;;;;6.95;3.80;;;18.40;74.70;;;;;;5095102;28;20035;-40
2022/07/01 08:48:44;;;;;;;7.40;3.53;;;18.40;73.90;;;;;;5095693;28;20020;-39
2022/07/01 08:51:10;;;;;;;6.88;3.65;;;18.40;73.70;;;;;;5093403;28;20028;-47
2022/07/01 08:53:36;;;;;;;5.70;3.72;;;18.40;73.80;;;;;;5095116;28;20032;-47
2022/07/01 08:58:49;;;;;;;5.40;2.80;;;18.40;73.40;;;;;;5095203;28;20114;-39
2022/07/01 09:01:23;;;;;;;4.82;2.70;;;18.40;73.20;;;;;;5095170;28;20250;-40
2022/07/01 09:03:52;;;;;;;6.45;3.03;;;18.50;72.90;;;;;;5093488;28;20430;-40
2022/07/01 09:06:20;;;;;;;6.03;2.97;;;18.70;73.00;;;;;;5095095;28;20024;-38
2022/07/01 09:08:46;;;;;;;3.75;2.45;;;18.80;72.60;;;;;;5095012;28;20025;-39
2022/07/01 09:11:30;;;;;;;5.63;2.58;;;19.00;72.30;;;;;;5094888;28;20119;-38
2022/07/01 09:14:13;;;;;;;2.90;1.73;;;19.10;69.90;;;;;;5094747;28;20099;-40
2022/07/01 09:16:48;;;;;;;4.10;2.08;;;19.00;70.80;;;;;;5094673;28;20025;-39
2022/07/01 09:19:15;;;;;;;3.67;1.85;;;19.00;70.90;;;;;;5094642;28;20552;-39
2022/07/01 09:21:42;;;;;;;3.95;1.80;;;19.10;70.40;;;;;;5094483;28;20052;-40
2022/07/01 09:24:28;;;;;;;2.38;1.60;;;19.00;70.40;;;;;;5094710;28;20016;-40
2022/07/01 09:27:16;;;;;;;2.20;1.50;;;19.00;70.30;;;;;;5094506;28;20422;-40
2022/07/01 09:29:52;;;;;;;3.53;1.55;;;18.90;70.10;;;;;;5093057;28;20057;-40
2022/07/01 09:32:20;;;;;;;4.00;1.70;;;19.00;70.00;;;;;;5094154;28;20035;-39
2022/07/01 09:34:50;;;;;;;4.18;1.52;;;19.10;69.90;;;;;;5094541;28;20027;-39
2022/07/01 09:37:21;;;;;;;4.30;1.40;;;19.20;69.30;;;;;;5094149;28;20122;-39
2022/07/01 09:39:52;;;;;;;2.35;1.20;;;19.30;68.70;;;;;;5092773;28;20479;-39
2022/07/01 09:42:20;;;;;;;4.10;1.27;;;19.30;68.20;;;;;;5094189;28;20556;-38
2022/07/01 09:44:56;;;;;;;2.97;1.30;;;19.40;68.00;;;;;;5093160;28;20016;-39
2022/07/01 09:47:29;;;;;;;3.55;1.58;;;19.50;67.50;;;;;;5094016;28;20024;-39
2022/07/01 09:49:56;;;;;;;2.65;1.40;;;19.50;67.50;;;;;;5094072;28;20027;-39
2022/07/01 09:52:22;;;;;;;3.65;1.55;;;19.60;67.20;;;;;;5094144;28;20028;-39
2022/07/01 09:54:49;;;;;;;4.47;1.10;;;19.80;66.10;;;;;;5094165;28;20020;-40
2022/07/01 09:57:19;;;;;;;3.28;1.20;;;19.90;65.90;;;;;;5093815;28;20509;-37
2022/07/01 09:59:45;;;;;;;1.85;1.10;;;20.10;65.50;;;;;;5094075;28;20097;-50
2022/07/01 10:02:12;;;;;;;2.15;1.40;;;20.20;64.80;;;;;;5093590;28;20036;-39
2022/07/01 10:04:46;;;;;;;2.13;1.30;;;20.20;63.80;;;;;;5093220;28;20016;-39
2022/07/01 10:07:37;;;;;;;2.35;1.27;;;20.30;64.20;;;;;;5093635;28;20153;-38
2022/07/01 10:10:23;;;;;;;2.17;1.10;;;20.30;64.00;;;;;;5093542;28;20352;-38
2022/07/01 10:12:53;;;;;;;2.65;1.15;;;20.30;63.00;;;;;;5094038;28;20028;-40
2022/07/01 10:15:20;;;;;;;2.65;1.17;;;20.30;63.50;;;;;;5093544;28;20111;-40
2022/07/01 10:17:48;;;;;;;3.05;1.30;;;20.30;62.80;;;;;;5093757;28;20028;-39
2022/07/01 10:20:20;;;;;;;2.38;1.05;;;20.30;62.30;;;;;;5092056;28;20027;-38
2022/07/01 10:22:46;;;;;;;2.92;1.20;;;20.20;62.30;;;;;;5093360;28;20495;-39
2022/07/01 10:25:43;;;;;;;2.03;1.17;;;20.20;62.40;;;;;;5093348;28;20429;-37
2022/07/01 10:28:12;;;;;;;2.85;1.10;;;20.30;62.10;;;;;;5093760;28;20024;-40
2022/07/01 10:31:00;;;;;;;1.70;1.20;;;20.20;62.10;;;;;;5093389;28;20035;-39
2022/07/01 10:33:31;;;;;;;1.83;0.98;;;20.20;62.20;;;;;;5093124;28;20020;-39
2022/07/01 10:36:04;;;;;;;2.15;1.05;;;20.20;62.10;;;;;;5093259;28;20027;-46
2022/07/01 10:38:30;;;;;;;2.20;1.10;;;20.10;61.50;;;;;;5093129;28;20020;-48
2022/07/01 10:40:55;;;;;;;1.85;1.00;;;20.00;61.70;;;;;;5093145;28;20055;-38
2022/07/01 10:43:34;;;;;;;1.58;0.93;;;20.00;61.70;;;;;;5093018;28;20028;-39
2022/07/01 10:46:00;;;;;;;2.97;1.20;;;20.10;61.90;;;;;;5093025;28;20055;-40
2022/07/01 10:48:26;;;;;;;3.47;1.20;;;20.10;61.00;;;;;;5093193;28;20024;-39
2022/07/01 10:50:53;;;;;;;2.15;1.10;;;20.10;60.90;;;;;;5092965;28;20028;-38
2022/07/01 10:53:19;;;;;;;1.60;0.85;;;20.20;60.80;;;;;;5092859;28;20519;-39
2022/07/01 10:55:52;;;;;;;3.28;1.00;;;20.20;60.50;;;;;;5093301;28;20028;-39
2022/07/01 10:58:34;;;;;;;1.15;0.80;;;20.20;59.90;;;;;;5092851;28;20722;-38
2022/07/01 11:01:00;;;;;;;1.90;1.00;;;20.10;60.10;;;;;;5092976;28;20559;-38
2022/07/01 11:03:25;;;;;;;2.22;0.93;;;20.00;60.20;;;;;;5093149;28;20133;-38
2022/07/01 11:05:53;;;;;;;2.13;1.02;;;20.10;60.10;;;;;;5092789;28;20020;-38
2022/07/01 11:08:19;;;;;;;1.85;0.98;;;20.10;59.70;;;;;;5093067;28;20426;-38
2022/07/01 11:10:50;;;;;;;1.42;0.85;;;20.00;59.50;;;;;;5091509;28;20051;-38
2022/07/01 11:13:16;;;;;;;3.90;1.08;;;20.10;59.50;;;;;;5092889;28;20013;-38
2022/07/01 11:15:45;;;;;;;3.33;1.00;;;20.20;59.30;;;;;;5095931;28;20426;-38
2022/07/01 11:18:10;;;;;;;0.63;0.60;;;20.40;59.10;;;;;;5096867;28;20024;-43
2022/07/01 11:20:36;;;;;;;1.92;0.77;;;20.60;59.00;;;;;;5096859;28;20024;-39
2022/07/01 11:23:02;;;;;;;2.03;1.00;;;20.80;58.90;;;;;;5096885;28;20028;-38
2022/07/01 11:25:29;;;;;;;1.50;1.00;;;20.90;58.10;;;;;;5096894;28;20095;-38
2022/07/01 11:27:55;;;;;;;1.85;0.90;;;20.90;58.00;;;;;;5096999;28;20032;-39
2022/07/01 11:30:21;;;;;;;2.53;0.88;;;21.00;58.00;;;;;;5097220;28;20379;-39
2022/07/01 11:32:53;;;;;;;4.45;1.10;;;21.00;57.90;;;;;;5096911;28;20383;-40
2022/07/01 11:41:25;;;;;;;1.75;1.00;;;21.00;57.80;;;;;;5096126;28;20560;-39
2022/07/01 11:43:52;;;;;;;3.45;1.10;;;20.90;57.60;;;;;;5096334;28;20061;-39
2022/07/01 11:46:18;;;;;;;2.50;1.10;;;20.80;57.70;;;;;;5096523;28;20381;-40
2022/07/01 11:48:49;;;;;;;1.95;0.90;;;20.80;57.90;;;;;;5096340;28;20103;-39
2022/07/01 11:51:20;;;;;;;4.22;0.90;;;20.90;57.60;;;;;;5095089;28;20016;-38
2022/07/01 11:53:49;;;;;;;1.98;0.80;;;21.00;57.60;;;;;;5094923;28;20028;-39
2022/07/01 11:56:15;;;;;;;3.00;0.98;;;21.20;57.50;;;;;;5096501;28;20028;-38
2022/07/01 11:58:48;;;;;;;2.17;1.17;;;21.20;57.10;;;;;;5096030;28;20023;-39
2022/07/01 12:01:31;;;;;;;1.75;0.70;;;21.40;56.70;;;;;;5096309;28;20024;-39
2022/07/01 12:04:00;;;;;;;5.55;0.88;;;21.30;56.70;;;;;;5095905;28;20024;-39
2022/07/01 12:06:26;;;;;;;2.78;0.65;;;21.30;56.50;;;;;;5096207;28;20027;-39
2022/07/01 12:08:53;;;;;;;2.35;0.90;;;21.30;56.30;;;;;;5095887;28;20042;-40
2022/07/01 12:11:20;;;;;;;2.70;0.85;;;21.20;55.80;;;;;;5096049;28;20047;-39
2022/07/01 12:13:47;;;;;;;2.85;0.80;;;21.10;55.90;;;;;;5096129;28;20062;-40
2022/07/01 12:16:13;;;;;;;3.33;0.80;;;21.10;56.20;;;;;;5095645;28;20028;-38
2022/07/01 12:18:49;;;;;;;2.20;0.90;;;21.20;56.30;;;;;;5095910;28;20480;-39
2022/07/01 12:21:15;;;;;;;2.63;0.90;;;21.20;56.10;;;;;;5095875;28;20047;-38
2022/07/01 12:23:41;;;;;;;1.20;0.70;;;21.40;56.00;;;;;;5095719;28;20111;-39
2022/07/01 12:26:06;;;;;;;2.10;0.75;;;21.50;55.90;;;;;;5095074;28;20020;-38
2022/07/01 12:28:37;;;;;;;2.45;0.70;;;21.60;55.00;;;;;;5095493;28;20044;-38
2022/07/01 12:31:08;;;;;;;1.10;0.60;;;21.60;54.20;;;;;;5095490;28;20142;-38
2022/07/01 12:33:38;;;;;;;2.15;1.00;;;21.50;54.00;;;;;;5095359;28;20457;-39
2022/07/01 12:36:06;;;;;;;1.08;0.73;;;21.60;54.40;;;;;;5095491;28;20073;-38
2022/07/01 12:38:32;;;;;;;1.60;0.60;;;21.50;54.40;;;;;;5094140;28;20069;-39
2022/07/01 12:40:58;;;;;;;2.17;0.85;;;21.60;54.80;;;;;;5095473;28;20040;-38
2022/07/01 12:43:24;;;;;;;0.70;0.70;;;21.60;54.80;;;;;;5095194;28;20032;-39
2022/07/01 12:45:49;;;;;;;1.55;0.90;;;21.70;54.90;;;;;;5095473;28;20065;-39
2022/07/01 12:48:15;;;;;;;1.65;0.75;;;21.80;54.80;;;;;;5095344;28;20020;-38
2022/07/01 12:50:41;;;;;;;2.10;0.80;;;21.90;54.30;;;;;;5095107;28;20107;-39
2022/07/01 12:53:09;;;;;;;3.53;0.90;;;22.10;54.10;;;;;;5095220;28;20020;-38